Star, Texas
Current Conditions -  °F | °C
As of 11:15 AM on Saturday 20 Dec 2014 (Local Time) from KMNZ Reporting Station
Drizzle Drizzle  
Wind Chill:   Ceiling: 700
Heat Index:   Visibility: 7mi
Dew Point:   Wind: 6mph
Humidity: 97%   Direction: 180°S
Pressure: 30.27"   Gusts: NA
Location:  31.47°N, 98.32°W
Report Text: KMNZ 201715Z AUTO 18005KT 7SM DZ BKN007 OVC015 08/08 A3027 RMK AO2 T00800076
Loading
Personal Weather Stations






























Interactive Weather Map New forecast layout! Learn more

10-Day Weather Forecast

Advertisements
Track Severe Weather on mobile